createdAt,value
2018-08-03T00:04:22.101Z,100704.34
2018-08-03T00:09:25.909Z,100705.27
2018-08-03T00:14:29.754Z,100696.47
2018-08-03T00:19:33.584Z,100692.08
2018-08-03T00:24:37.529Z,100698.39
2018-08-03T00:29:41.441Z,100696.83
2018-08-03T00:34:45.405Z,100707.58
2018-08-03T00:39:49.338Z,100713.60
2018-08-03T00:44:53.373Z,100715.23
2018-08-03T00:49:57.264Z,100722.55
2018-08-03T00:55:04.188Z,100722.48
2018-08-03T01:00:08.427Z,100729.52
2018-08-03T01:05:12.260Z,100724.06
2018-08-03T01:10:16.249Z,100731.58
2018-08-03T01:15:20.015Z,100727.55
2018-08-03T01:20:23.857Z,100714.80
2018-08-03T01:25:28.140Z,100710.80
2018-08-03T01:30:32.154Z,100708.98
2018-08-03T01:35:35.998Z,100715.80
2018-08-03T01:40:39.737Z,100706.91
2018-08-03T01:45:43.562Z,100714.44
2018-08-03T01:50:47.516Z,100718.02
2018-08-03T01:55:51.349Z,100720.59
2018-08-03T02:00:55.179Z,100710.12
2018-08-03T02:05:59.028Z,100710.78
2018-08-03T02:11:02.970Z,100708.32
2018-08-03T02:16:06.881Z,100708.23
2018-08-03T02:21:10.830Z,100697.11
2018-08-03T02:26:14.719Z,100707.14
2018-08-03T02:31:18.659Z,100706.02
2018-08-03T02:36:22.557Z,100708.14
2018-08-03T02:41:26.336Z,100711.28
2018-08-03T02:46:30.154Z,100709.06
2018-08-03T02:51:33.968Z,100717.73
2018-08-03T02:56:37.845Z,100721.58
2018-08-03T03:01:41.697Z,100717.14
2018-08-03T03:06:45.657Z,100723.68
2018-08-03T03:11:49.550Z,100728.33
2018-08-03T03:16:53.403Z,100742.37
2018-08-03T03:21:57.189Z,100743.50
2018-08-03T03:27:01.053Z,100745.42
2018-08-03T03:32:04.888Z,100737.05
2018-08-03T03:37:08.799Z,100742.05
2018-08-03T03:42:12.615Z,100750.06
2018-08-03T03:47:16.401Z,100752.48
2018-08-03T03:52:20.297Z,100755.52
2018-08-03T03:57:24.147Z,100758.78
2018-08-03T04:02:28.852Z,100760.67
2018-08-03T04:07:32.693Z,100762.34
2018-08-03T04:12:36.455Z,100759.87
2018-08-03T04:17:40.218Z,100767.36
2018-08-03T04:22:44.121Z,100758.84
2018-08-03T04:27:47.938Z,100759.41
2018-08-03T04:32:51.805Z,100756.70
2018-08-03T04:37:55.629Z,100758.22
2018-08-03T04:42:59.567Z,100760.06
2018-08-03T04:48:03.398Z,100759.73
2018-08-03T04:53:07.491Z,100761.09
2018-08-03T04:58:12.430Z,100773.02
2018-08-03T05:03:17.631Z,100766.73
2018-08-03T05:08:22.010Z,100769.70
2018-08-03T05:13:25.843Z,100767.22
2018-08-03T05:18:30.760Z,100774.15
2018-08-03T05:23:34.680Z,100781.20
2018-08-03T05:28:38.608Z,100785.41
2018-08-03T05:33:42.470Z,100782.45
2018-08-03T05:38:46.543Z,100786.53
2018-08-03T05:43:50.369Z,100796.75
2018-08-03T05:48:54.319Z,100794.89
2018-08-03T05:54:02.690Z,100802.67
2018-08-03T05:59:07.087Z,100799.47
2018-08-03T06:04:10.986Z,100791.19
2018-08-03T06:09:14.823Z,100794.53
2018-08-03T06:14:18.715Z,100797.97
2018-08-03T06:19:22.578Z,100802.66
2018-08-03T06:24:27.184Z,100796.38
2018-08-03T06:29:31.805Z,100796.97
2018-08-03T06:34:36.374Z,100800.94
2018-08-03T06:39:40.230Z,100793.51
2018-08-03T06:44:45.837Z,100795.38
2018-08-03T06:49:49.811Z,100789.18
2018-08-03T06:54:53.763Z,100784.49
2018-08-03T06:59:57.736Z,100783.69
2018-08-03T07:05:07.008Z,100786.78
2018-08-03T07:10:11.335Z,100788.34
2018-08-03T07:15:21.714Z,100790.91
2018-08-03T07:20:26.446Z,100789.81
2018-08-03T07:25:30.383Z,100797.94
2018-08-03T07:30:34.953Z,100794.34
2018-08-03T07:35:38.971Z,100792.70
2018-08-03T07:40:47.963Z,100801.61
2018-08-03T07:46:05.342Z,100796.39
2018-08-03T07:51:27.072Z,100797.87
2018-08-03T07:56:31.872Z,100793.41
2018-08-03T08:01:35.720Z,100781.86
2018-08-03T08:06:39.616Z,100786.44
2018-08-03T08:11:43.488Z,100773.81
2018-08-03T08:16:48.325Z,100776.49
2018-08-03T08:21:52.243Z,100772.42
2018-08-03T08:26:56.686Z,100777.46
2018-08-03T08:32:00.606Z,100770.88
2018-08-03T08:37:04.504Z,100767.30
2018-08-03T08:42:08.359Z,100766.05
2018-08-03T08:47:15.231Z,100768.77
2018-08-03T08:52:20.208Z,100771.55
2018-08-03T08:57:25.571Z,100752.91
2018-08-03T09:02:30.000Z,100763.64
2018-08-03T09:07:33.915Z,100754.94
2018-08-03T09:12:37.903Z,100751.36
2018-08-03T09:17:41.677Z,100752.58
2018-08-03T09:22:45.522Z,100748.75
2018-08-03T09:27:49.960Z,100743.77
2018-08-03T09:32:53.771Z,100738.11
2018-08-03T09:37:57.802Z,100733.03
2018-08-03T09:43:01.581Z,100726.47
2018-08-03T09:48:05.467Z,100731.77
2018-08-03T09:53:09.262Z,100723.31
2018-08-03T09:58:13.083Z,100714.44
2018-08-03T10:03:16.926Z,100709.71
2018-08-03T10:08:21.430Z,100704.52
2018-08-03T10:13:25.262Z,100714.39
2018-08-03T10:18:30.271Z,100710.86
2018-08-03T10:23:34.147Z,100704.31
2018-08-03T10:28:38.067Z,100696.51
2018-08-03T10:33:41.940Z,100694.89
2018-08-03T10:38:45.753Z,100682.73
2018-08-03T10:43:49.558Z,100684.90
2018-08-03T10:48:53.481Z,100670.28
2018-08-03T10:53:57.382Z,100667.92
2018-08-03T10:59:01.205Z,100661.83
2018-08-03T11:04:05.095Z,100654.25
2018-08-03T11:09:10.201Z,100648.66
2018-08-03T11:14:14.040Z,100650.41
2018-08-03T11:19:19.427Z,100648.66
2018-08-03T11:24:23.571Z,100645.88
2018-08-03T11:29:27.667Z,100642.00
2018-08-03T11:34:31.552Z,100633.35
2018-08-03T11:39:35.985Z,100630.61
2018-08-03T11:44:40.685Z,100613.42
2018-08-03T11:49:47.308Z,100612.92
2018-08-03T11:54:51.320Z,100610.48
2018-08-03T12:00:07.665Z,100600.11
2018-08-03T12:05:12.916Z,100599.09
2018-08-03T12:10:16.971Z,100591.94
2018-08-03T12:15:21.576Z,100598.75
2018-08-03T12:20:26.240Z,100579.78
2018-08-03T12:25:30.463Z,100571.84
2018-08-03T12:30:35.871Z,100568.19
2018-08-03T12:35:41.251Z,100566.17
2018-08-03T12:40:46.556Z,100566.48
2018-08-03T12:45:52.309Z,100546.25
2018-08-03T12:50:58.892Z,100543.28
2018-08-03T12:56:02.950Z,100552.70
2018-08-03T13:01:07.880Z,100536.86
2018-08-03T13:06:11.960Z,100530.00
2018-08-03T13:11:16.314Z,100523.11
2018-08-03T13:16:20.271Z,100518.39
2018-08-03T13:21:35.546Z,100513.45
2018-08-03T13:26:39.446Z,100514.81
2018-08-03T13:31:43.540Z,100507.91
2018-08-03T13:36:47.500Z,100505.19
2018-08-03T13:41:51.543Z,100498.72
2018-08-03T13:46:55.622Z,100489.53
2018-08-03T13:51:59.626Z,100485.00
2018-08-03T13:57:03.426Z,100484.69
2018-08-03T14:02:18.359Z,100476.09
2018-08-03T14:07:22.198Z,100475.75
2018-08-03T14:12:26.055Z,100471.67
2018-08-03T14:17:29.939Z,100471.57
2018-08-03T14:22:34.617Z,100468.00
2018-08-03T14:27:38.452Z,100463.24
2018-08-03T14:32:42.300Z,100457.48
2018-08-03T14:37:46.642Z,100450.60
2018-08-03T14:42:51.595Z,100439.77
2018-08-03T14:47:55.614Z,100431.73
2018-08-03T14:53:00.599Z,100424.25
2018-08-03T14:58:04.673Z,100424.44
2018-08-03T15:03:09.897Z,100424.81
2018-08-03T15:08:13.796Z,100423.45
2018-08-03T15:13:17.690Z,100415.22
2018-08-03T15:18:21.716Z,100408.31
2018-08-03T15:23:25.645Z,100402.20
2018-08-03T15:28:29.822Z,100401.56
2018-08-03T15:33:35.322Z,100400.38
2018-08-03T15:38:39.225Z,100383.23
2018-08-03T15:43:43.109Z,100383.56
2018-08-03T15:48:47.060Z,100376.23
2018-08-03T15:53:51.125Z,100378.86
2018-08-03T15:58:56.226Z,100374.84
2018-08-03T16:04:00.319Z,100365.52
2018-08-03T16:09:06.349Z,100361.90
2018-08-03T16:14:10.925Z,100351.00
2018-08-03T16:19:18.549Z,100362.78
2018-08-03T16:24:26.002Z,100351.88
2018-08-03T16:29:30.326Z,100347.81
2018-08-03T16:34:34.257Z,100346.43
2018-08-03T16:39:38.146Z,100336.79
2018-08-03T16:44:42.864Z,100341.78
2018-08-03T16:49:46.775Z,100339.09
2018-08-03T16:54:50.903Z,100340.69
2018-08-03T16:59:54.846Z,100338.30
2018-08-03T17:04:58.826Z,100336.65
2018-08-03T17:26:25.625Z,100321.64
2018-08-03T17:31:29.486Z,100328.47
2018-08-03T17:36:34.623Z,100326.75
2018-08-03T17:41:39.674Z,100331.69
2018-08-03T17:46:43.651Z,100333.23
2018-08-03T17:51:47.520Z,100330.41
2018-08-03T17:56:51.485Z,100345.25
2018-08-03T18:01:55.439Z,100340.91
2018-08-03T18:06:59.410Z,100341.14
2018-08-03T18:12:03.703Z,100340.63
2018-08-03T18:17:08.018Z,100347.34
2018-08-03T18:22:11.900Z,100347.55
2018-08-03T18:27:15.788Z,100340.26
2018-08-03T18:32:19.610Z,100345.84
2018-08-03T18:37:23.441Z,100352.32
2018-08-03T18:42:27.658Z,100350.91
2018-08-03T18:47:31.436Z,100356.03
2018-08-03T18:52:35.282Z,100348.74
2018-08-03T18:57:39.161Z,100352.40
2018-08-03T19:02:44.295Z,100353.17
2018-08-03T19:07:48.223Z,100361.70
2018-08-03T19:12:52.159Z,100364.89
2018-08-03T19:17:56.732Z,100373.08
2018-08-03T19:23:00.595Z,100375.13
2018-08-03T19:28:04.562Z,100377.21
2018-08-03T19:33:08.938Z,100374.95
2018-08-03T19:38:13.285Z,100370.86
2018-08-03T19:43:17.846Z,100370.81
2018-08-03T19:48:21.937Z,100370.38
2018-08-03T19:53:25.844Z,100368.34
2018-08-03T19:58:30.621Z,100365.70
2018-08-03T20:03:34.532Z,100366.63
2018-08-03T20:08:38.611Z,100371.41
2018-08-03T20:13:42.601Z,100373.20
2018-08-03T20:18:46.490Z,100378.19
2018-08-03T20:23:50.338Z,100377.55
2018-08-03T20:28:54.137Z,100383.02
2018-08-03T20:33:57.938Z,100382.38
2018-08-03T20:39:01.812Z,100374.20
2018-08-03T20:44:05.583Z,100375.74
2018-08-03T20:49:09.426Z,100380.57
2018-08-03T20:54:13.318Z,100383.41
2018-08-03T20:59:17.128Z,100380.27
2018-08-03T21:04:21.581Z,100386.58
2018-08-03T21:09:26.241Z,100384.83
2018-08-03T21:14:30.063Z,100386.48
2018-08-03T21:19:33.928Z,100386.08
2018-08-03T21:24:38.028Z,100383.92
2018-08-03T21:29:41.859Z,100393.68
2018-08-03T21:34:45.894Z,100394.78
2018-08-03T21:39:49.698Z,100387.67
2018-08-03T21:44:54.319Z,100394.04
2018-08-03T21:49:58.375Z,100393.70
2018-08-03T21:55:05.350Z,100391.08
2018-08-03T22:00:13.150Z,100390.56
2018-08-03T22:05:17.068Z,100393.34
2018-08-03T22:10:21.139Z,100393.86
2018-08-03T22:15:25.001Z,100400.63
2018-08-03T22:20:28.866Z,100401.74
2018-08-03T22:25:33.726Z,100395.84
2018-08-03T22:30:37.630Z,100396.23
2018-08-03T22:35:41.528Z,100390.05
2018-08-03T22:40:45.425Z,100394.53
2018-08-03T22:45:49.216Z,100397.39
2018-08-03T22:50:53.005Z,100398.92
2018-08-03T22:55:56.878Z,100391.06
2018-08-03T23:01:00.866Z,100386.77
2018-08-03T23:06:04.718Z,100385.96
2018-08-03T23:11:08.796Z,100381.98
2018-08-03T23:16:13.520Z,100380.75
2018-08-03T23:21:17.387Z,100381.75
2018-08-03T23:26:21.248Z,100379.03
2018-08-03T23:31:25.009Z,100379.88
2018-08-03T23:36:28.825Z,100380.23
2018-08-03T23:41:32.718Z,100376.14
2018-08-03T23:46:36.664Z,100367.41
2018-08-03T23:51:40.447Z,100366.20
2018-08-03T23:56:44.310Z,100363.48
